Summersville, Missouri
Current Conditions -  °F | °C
As of 7:53 AM on Monday 24 Nov 2014 (Local Time) from KUNO Reporting Station
Clear Clear  
Wind Chill: 31°   Ceiling: Unl
Heat Index: 38°   Visibility: 10mi
Dew Point: 27°   Wind: 10mph
Humidity: 65%   Direction: 270°W
Pressure: 29.72"   Gusts: 21mph
Location:  37.18°N, 91.66°W
Report Text: KUNO 241353Z AUTO 27009G18KT 10SM CLR 03/M03 A2972 RMK AO2 SLP064 T00331028
Loading
Personal Weather Stations






























Interactive Weather Map New forecast layout! Learn more

10-Day Weather Forecast

Advertisements
Track Severe Weather on mobile